sensor_id;sensor_type;location;lat;lon;timestamp;temperature;humidity
27314;DHT22;14800;48.174;9.798;2022-12-18T00:00:32;-2.50;85.00
27314;DHT22;14800;48.174;9.798;2022-12-18T00:02:57;-2.50;85.10
27314;DHT22;14800;48.174;9.798;2022-12-18T00:05:23;-2.50;85.10
27314;DHT22;14800;48.174;9.798;2022-12-18T00:07:48;-2.40;85.10
27314;DHT22;14800;48.174;9.798;2022-12-18T00:10:14;-2.40;85.10
27314;DHT22;14800;48.174;9.798;2022-12-18T00:12:39;-2.40;84.90
27314;DHT22;14800;48.174;9.798;2022-12-18T00:15:08;-2.40;84.90
27314;DHT22;14800;48.174;9.798;2022-12-18T00:17:34;-2.40;84.90
27314;DHT22;14800;48.174;9.798;2022-12-18T00:19:59;-2.40;84.90
27314;DHT22;14800;48.174;9.798;2022-12-18T00:22:25;-2.40;84.90
27314;DHT22;14800;48.174;9.798;2022-12-18T00:24:50;-2.40;85.10
27314;DHT22;14800;48.174;9.798;2022-12-18T00:27:16;-2.40;85.10
27314;DHT22;14800;48.174;9.798;2022-12-18T00:29:41;-2.40;85.10
27314;DHT22;14800;48.174;9.798;2022-12-18T00:32:07;-2.40;85.10
27314;DHT22;14800;48.174;9.798;2022-12-18T00:34:32;-2.40;85.10
27314;DHT22;14800;48.174;9.798;2022-12-18T00:36:58;-2.30;85.00
27314;DHT22;14800;48.174;9.798;2022-12-18T00:39:23;-2.40;85.00
27314;DHT22;14800;48.174;9.798;2022-12-18T00:41:49;-2.40;84.90
27314;DHT22;14800;48.174;9.798;2022-12-18T00:44:33;-2.40;84.90
27314;DHT22;14800;48.174;9.798;2022-12-18T00:46:59;-2.30;84.90
27314;DHT22;14800;48.174;9.798;2022-12-18T00:49:24;-2.40;84.80
27314;DHT22;14800;48.174;9.798;2022-12-18T00:51:50;-2.40;84.80
27314;DHT22;14800;48.174;9.798;2022-12-18T00:54:16;-2.40;84.70
27314;DHT22;14800;48.174;9.798;2022-12-18T00:56:41;-2.40;84.70
27314;DHT22;14800;48.174;9.798;2022-12-18T00:59:07;-2.40;84.80
27314;DHT22;14800;48.174;9.798;2022-12-18T01:01:33;-2.40;84.90
27314;DHT22;14800;48.174;9.798;2022-12-18T01:04:00;-2.40;84.90
27314;DHT22;14800;48.174;9.798;2022-12-18T01:06:26;-2.40;84.90
27314;DHT22;14800;48.174;9.798;2022-12-18T01:08:51;-2.40;84.90
27314;DHT22;14800;48.174;9.798;2022-12-18T01:11:20;-2.40;84.90
27314;DHT22;14800;48.174;9.798;2022-12-18T01:13:46;-2.40;84.90
27314;DHT22;14800;48.174;9.798;2022-12-18T01:16:16;-2.50;84.80
27314;DHT22;14800;48.174;9.798;2022-12-18T01:18:42;-2.50;84.80
27314;DHT22;14800;48.174;9.798;2022-12-18T01:21:10;-2.50;84.90
27314;DHT22;14800;48.174;9.798;2022-12-18T01:23:36;-2.60;84.90
27314;DHT22;14800;48.174;9.798;2022-12-18T01:26:09;-2.60;85.00
27314;DHT22;14800;48.174;9.798;2022-12-18T01:28:37;-2.60;85.10
27314;DHT22;14800;48.174;9.798;2022-12-18T01:31:14;-2.60;85.10
27314;DHT22;14800;48.174;9.798;2022-12-18T01:33:39;-2.60;85.10
27314;DHT22;14800;48.174;9.798;2022-12-18T01:36:05;-2.60;85.10
27314;DHT22;14800;48.174;9.798;2022-12-18T01:38:31;-2.60;85.10
27314;DHT22;14800;48.174;9.798;2022-12-18T01:40:58;-2.60;85.10
27314;DHT22;14800;48.174;9.798;2022-12-18T01:44:01;-2.50;85.10
27314;DHT22;14800;48.174;9.798;2022-12-18T01:46:27;-2.50;85.10
27314;DHT22;14800;48.174;9.798;2022-12-18T01:48:59;-2.50;85.10
27314;DHT22;14800;48.174;9.798;2022-12-18T01:51:26;-2.50;84.90
27314;DHT22;14800;48.174;9.798;2022-12-18T01:53:52;-2.50;84.90
27314;DHT22;14800;48.174;9.798;2022-12-18T01:56:20;-2.50;84.90
27314;DHT22;14800;48.174;9.798;2022-12-18T01:59:00;-2.50;84.90
27314;DHT22;14800;48.174;9.798;2022-12-18T02:01:30;-2.50;84.90
27314;DHT22;14800;48.174;9.798;2022-12-18T02:03:56;-2.50;85.00
27314;DHT22;14800;48.174;9.798;2022-12-18T02:06:40;-2.50;85.10
27314;DHT22;14800;48.174;9.798;2022-12-18T02:09:13;-2.50;85.10
27314;DHT22;14800;48.174;9.798;2022-12-18T02:17:38;-2.50;85.20
27314;DHT22;14800;48.174;9.798;2022-12-18T02:27:51;-2.50;85.00
27314;DHT22;14800;48.174;9.798;2022-12-18T02:30:17;-2.50;84.90
27314;DHT22;14800;48.174;9.798;2022-12-18T02:32:51;-2.50;84.80
27314;DHT22;14800;48.174;9.798;2022-12-18T02:35:23;-2.50;84.80
27314;DHT22;14800;48.174;9.798;2022-12-18T02:37:50;-2.50;84.80
27314;DHT22;14800;48.174;9.798;2022-12-18T02:40:21;-2.50;84.70
27314;DHT22;14800;48.174;9.798;2022-12-18T02:42:47;-2.50;84.80
27314;DHT22;14800;48.174;9.798;2022-12-18T02:45:13;-2.50;84.80
27314;DHT22;14800;48.174;9.798;2022-12-18T02:47:42;-2.50;84.90
27314;DHT22;14800;48.174;9.798;2022-12-18T03:03:55;-2.50;84.60
27314;DHT22;14800;48.174;9.798;2022-12-18T03:06:24;-2.50;84.70
27314;DHT22;14800;48.174;9.798;2022-12-18T03:08:56;-2.50;84.80
27314;DHT22;14800;48.174;9.798;2022-12-18T03:11:25;-2.50;84.50
27314;DHT22;14800;48.174;9.798;2022-12-18T03:14:13;-2.50;84.60
27314;DHT22;14800;48.174;9.798;2022-12-18T03:16:42;-2.50;84.60
27314;DHT22;14800;48.174;9.798;2022-12-18T03:19:14;-2.50;84.50
27314;DHT22;14800;48.174;9.798;2022-12-18T03:21:43;-2.50;84.50
27314;DHT22;14800;48.174;9.798;2022-12-18T03:24:11;-2.60;84.40
27314;DHT22;14800;48.174;9.798;2022-12-18T03:26:40;-2.60;84.60
27314;DHT22;14800;48.174;9.798;2022-12-18T03:29:12;-2.60;84.60
27314;DHT22;14800;48.174;9.798;2022-12-18T03:31:42;-2.70;84.60
27314;DHT22;14800;48.174;9.798;2022-12-18T03:34:17;-2.70;84.70
27314;DHT22;14800;48.174;9.798;2022-12-18T03:36:43;-2.70;84.90
27314;DHT22;14800;48.174;9.798;2022-12-18T03:39:09;-2.70;84.90
27314;DHT22;14800;48.174;9.798;2022-12-18T03:41:51;-2.80;84.90
27314;DHT22;14800;48.174;9.798;2022-12-18T03:50:20;-2.70;85.20
27314;DHT22;14800;48.174;9.798;2022-12-18T03:52:55;-2.70;85.20
27314;DHT22;14800;48.174;9.798;2022-12-18T03:55:22;-2.70;85.10
27314;DHT22;14800;48.174;9.798;2022-12-18T03:57:50;-2.70;84.90
27314;DHT22;14800;48.174;9.798;2022-12-18T04:00:18;-2.70;84.80
27314;DHT22;14800;48.174;9.798;2022-12-18T04:02:55;-2.70;84.70
27314;DHT22;14800;48.174;9.798;2022-12-18T04:05:22;-2.70;84.60
27314;DHT22;14800;48.174;9.798;2022-12-18T04:07:51;-2.70;84.70
27314;DHT22;14800;48.174;9.798;2022-12-18T04:10:17;-2.80;84.70
27314;DHT22;14800;48.174;9.798;2022-12-18T04:12:44;-2.80;84.70
27314;DHT22;14800;48.174;9.798;2022-12-18T04:15:10;-2.80;84.90
27314;DHT22;14800;48.174;9.798;2022-12-18T04:17:36;-2.70;85.10
27314;DHT22;14800;48.174;9.798;2022-12-18T04:20:02;-2.80;85.10
27314;DHT22;14800;48.174;9.798;2022-12-18T04:22:28;-2.70;85.10
27314;DHT22;14800;48.174;9.798;2022-12-18T04:24:53;-2.80;85.10
27314;DHT22;14800;48.174;9.798;2022-12-18T04:27:22;-2.70;85.00
27314;DHT22;14800;48.174;9.798;2022-12-18T04:29:47;-2.70;84.80
27314;DHT22;14800;48.174;9.798;2022-12-18T04:32:13;-2.70;84.90
27314;DHT22;14800;48.174;9.798;2022-12-18T04:34:38;-2.70;84.90
27314;DHT22;14800;48.174;9.798;2022-12-18T04:37:04;-2.70;84.90
27314;DHT22;14800;48.174;9.798;2022-12-18T04:39:29;-2.70;84.90
27314;DHT22;14800;48.174;9.798;2022-12-18T04:41:55;-2.70;84.90
27314;DHT22;14800;48.174;9.798;2022-12-18T04:44:21;-2.70;84.90
27314;DHT22;14800;48.174;9.798;2022-12-18T04:46:46;-2.70;84.70
27314;DHT22;14800;48.174;9.798;2022-12-18T04:49:12;-2.70;84.60
27314;DHT22;14800;48.174;9.798;2022-12-18T04:51:38;-2.80;84.40
27314;DHT22;14800;48.174;9.798;2022-12-18T04:54:03;-2.70;84.60
27314;DHT22;14800;48.174;9.798;2022-12-18T04:56:31;-2.80;84.60
27314;DHT22;14800;48.174;9.798;2022-12-18T04:58:56;-2.80;84.60
27314;DHT22;14800;48.174;9.798;2022-12-18T05:01:22;-2.90;84.50
27314;DHT22;14800;48.174;9.798;2022-12-18T05:03:48;-2.90;84.60
27314;DHT22;14800;48.174;9.798;2022-12-18T05:06:13;-2.90;84.70
27314;DHT22;14800;48.174;9.798;2022-12-18T05:08:39;-2.90;85.00
27314;DHT22;14800;48.174;9.798;2022-12-18T05:11:10;-2.90;85.00
27314;DHT22;14800;48.174;9.798;2022-12-18T05:13:36;-2.90;85.10
27314;DHT22;14800;48.174;9.798;2022-12-18T05:16:03;-2.90;85.10
27314;DHT22;14800;48.174;9.798;2022-12-18T05:18:29;-2.90;85.10
27314;DHT22;14800;48.174;9.798;2022-12-18T05:20:55;-2.90;85.10
27314;DHT22;14800;48.174;9.798;2022-12-18T05:23:22;-2.90;85.00
27314;DHT22;14800;48.174;9.798;2022-12-18T05:25:56;-2.90;85.00
27314;DHT22;14800;48.174;9.798;2022-12-18T05:28:23;-2.90;84.90
27314;DHT22;14800;48.174;9.798;2022-12-18T05:30:55;-2.90;85.00
27314;DHT22;14800;48.174;9.798;2022-12-18T05:33:21;-2.90;84.90
27314;DHT22;14800;48.174;9.798;2022-12-18T05:35:52;-2.90;84.80
27314;DHT22;14800;48.174;9.798;2022-12-18T05:38:19;-2.90;84.90
27314;DHT22;14800;48.174;9.798;2022-12-18T05:40:45;-2.90;84.90
27314;DHT22;14800;48.174;9.798;2022-12-18T05:43:10;-2.90;84.90
27314;DHT22;14800;48.174;9.798;2022-12-18T05:45:37;-2.90;84.90
27314;DHT22;14800;48.174;9.798;2022-12-18T05:48:04;-2.90;84.90
27314;DHT22;14800;48.174;9.798;2022-12-18T05:50:29;-2.90;85.10
27314;DHT22;14800;48.174;9.798;2022-12-18T05:52:55;-2.90;85.10
27314;DHT22;14800;48.174;9.798;2022-12-18T05:55:20;-2.90;85.10
27314;DHT22;14800;48.174;9.798;2022-12-18T05:57:46;-2.90;85.00
27314;DHT22;14800;48.174;9.798;2022-12-18T06:00:12;-2.90;84.90
27314;DHT22;14800;48.174;9.798;2022-12-18T06:02:38;-3.00;84.90
27314;DHT22;14800;48.174;9.798;2022-12-18T06:05:04;-3.00;85.00
27314;DHT22;14800;48.174;9.798;2022-12-18T06:07:29;-2.90;85.20
27314;DHT22;14800;48.174;9.798;2022-12-18T06:09:55;-2.90;85.20
27314;DHT22;14800;48.174;9.798;2022-12-18T06:12:20;-2.90;85.30
27314;DHT22;14800;48.174;9.798;2022-12-18T06:14:46;-2.90;85.20
27314;DHT22;14800;48.174;9.798;2022-12-18T06:17:12;-2.90;85.20
27314;DHT22;14800;48.174;9.798;2022-12-18T06:19:37;-2.90;85.10
27314;DHT22;14800;48.174;9.798;2022-12-18T06:22:03;-2.90;85.20
27314;DHT22;14800;48.174;9.798;2022-12-18T06:24:29;-2.90;85.20
27314;DHT22;14800;48.174;9.798;2022-12-18T06:26:55;-2.80;85.30
27314;DHT22;14800;48.174;9.798;2022-12-18T06:29:21;-2.80;85.40
27314;DHT22;14800;48.174;9.798;2022-12-18T06:31:47;-2.80;85.40
27314;DHT22;14800;48.174;9.798;2022-12-18T06:34:12;-2.70;85.40
27314;DHT22;14800;48.174;9.798;2022-12-18T06:36:38;-2.70;85.10
27314;DHT22;14800;48.174;9.798;2022-12-18T06:39:03;-2.70;84.80
27314;DHT22;14800;48.174;9.798;2022-12-18T06:41:29;-2.70;84.70
27314;DHT22;14800;48.174;9.798;2022-12-18T06:43:54;-2.70;84.80
27314;DHT22;14800;48.174;9.798;2022-12-18T06:46:20;-2.70;84.80
27314;DHT22;14800;48.174;9.798;2022-12-18T06:48:50;-2.70;84.80
27314;DHT22;14800;48.174;9.798;2022-12-18T06:51:19;-2.70;84.80
27314;DHT22;14800;48.174;9.798;2022-12-18T06:53:45;-2.70;84.90
27314;DHT22;14800;48.174;9.798;2022-12-18T06:56:11;-2.70;84.90
27314;DHT22;14800;48.174;9.798;2022-12-18T06:58:38;-2.70;84.70
27314;DHT22;14800;48.174;9.798;2022-12-18T07:01:05;-2.70;84.70
27314;DHT22;14800;48.174;9.798;2022-12-18T07:03:34;-2.70;84.60
27314;DHT22;14800;48.174;9.798;2022-12-18T07:06:00;-2.70;84.40
27314;DHT22;14800;48.174;9.798;2022-12-18T07:08:25;-2.80;84.20
27314;DHT22;14800;48.174;9.798;2022-12-18T07:10:51;-2.80;84.20
27314;DHT22;14800;48.174;9.798;2022-12-18T07:13:18;-2.90;84.40
27314;DHT22;14800;48.174;9.798;2022-12-18T07:15:43;-2.90;84.40
27314;DHT22;14800;48.174;9.798;2022-12-18T07:18:09;-2.90;84.60
27314;DHT22;14800;48.174;9.798;2022-12-18T07:20:35;-3.00;84.80
27314;DHT22;14800;48.174;9.798;2022-12-18T07:23:04;-3.00;85.10
27314;DHT22;14800;48.174;9.798;2022-12-18T07:25:36;-3.00;86.10
27314;DHT22;14800;48.174;9.798;2022-12-18T07:28:02;-3.00;85.40
27314;DHT22;14800;48.174;9.798;2022-12-18T07:30:28;-2.90;85.70
27314;DHT22;14800;48.174;9.798;2022-12-18T07:32:54;-2.90;85.80
27314;DHT22;14800;48.174;9.798;2022-12-18T07:35:19;-2.80;85.80
27314;DHT22;14800;48.174;9.798;2022-12-18T07:37:45;-2.80;85.60
27314;DHT22;14800;48.174;9.798;2022-12-18T07:40:11;-2.80;85.60
27314;DHT22;14800;48.174;9.798;2022-12-18T07:42:37;-2.70;85.70
27314;DHT22;14800;48.174;9.798;2022-12-18T07:45:03;-2.70;86.50
27314;DHT22;14800;48.174;9.798;2022-12-18T07:47:29;-2.70;85.80
27314;DHT22;14800;48.174;9.798;2022-12-18T07:50:02;-2.60;85.80
27314;DHT22;14800;48.174;9.798;2022-12-18T07:52:28;-2.50;85.90
27314;DHT22;14800;48.174;9.798;2022-12-18T07:54:54;-2.50;85.90
27314;DHT22;14800;48.174;9.798;2022-12-18T07:57:19;-2.50;86.60
27314;DHT22;14800;48.174;9.798;2022-12-18T07:59:45;-2.40;85.80
27314;DHT22;14800;48.174;9.798;2022-12-18T08:02:10;-2.40;85.60
27314;DHT22;14800;48.174;9.798;2022-12-18T08:04:38;-2.30;85.60
27314;DHT22;14800;48.174;9.798;2022-12-18T08:07:04;-2.30;85.40
27314;DHT22;14800;48.174;9.798;2022-12-18T08:09:32;-2.30;85.40
27314;DHT22;14800;48.174;9.798;2022-12-18T08:11:57;-2.20;85.40
27314;DHT22;14800;48.174;9.798;2022-12-18T08:14:23;-2.20;85.40
27314;DHT22;14800;48.174;9.798;2022-12-18T08:16:48;-2.10;85.40
27314;DHT22;14800;48.174;9.798;2022-12-18T08:19:14;-2.10;85.40
27314;DHT22;14800;48.174;9.798;2022-12-18T08:21:39;-2.10;85.40
27314;DHT22;14800;48.174;9.798;2022-12-18T08:24:05;-2.00;85.60
27314;DHT22;14800;48.174;9.798;2022-12-18T08:26:31;-2.00;85.50
27314;DHT22;14800;48.174;9.798;2022-12-18T08:28:58;-2.00;85.40
27314;DHT22;14800;48.174;9.798;2022-12-18T08:31:26;-1.90;85.30
27314;DHT22;14800;48.174;9.798;2022-12-18T08:33:52;-1.90;85.10
27314;DHT22;14800;48.174;9.798;2022-12-18T08:36:19;-1.90;85.00
27314;DHT22;14800;48.174;9.798;2022-12-18T08:38:45;-1.90;85.10
27314;DHT22;14800;48.174;9.798;2022-12-18T08:41:12;-1.90;84.90
27314;DHT22;14800;48.174;9.798;2022-12-18T08:43:38;-1.80;84.80
27314;DHT22;14800;48.174;9.798;2022-12-18T08:46:25;-1.90;84.90
27314;DHT22;14800;48.174;9.798;2022-12-18T08:48:52;-1.90;84.90
27314;DHT22;14800;48.174;9.798;2022-12-18T08:51:18;-1.80;84.90
27314;DHT22;14800;48.174;9.798;2022-12-18T08:53:45;-1.90;84.80
27314;DHT22;14800;48.174;9.798;2022-12-18T08:56:11;-1.90;84.90
27314;DHT22;14800;48.174;9.798;2022-12-18T08:58:37;-1.90;84.70
27314;DHT22;14800;48.174;9.798;2022-12-18T09:01:04;-1.90;84.70
27314;DHT22;14800;48.174;9.798;2022-12-18T09:03:30;-1.90;84.80
27314;DHT22;14800;48.174;9.798;2022-12-18T09:05:55;-1.90;84.90
27314;DHT22;14800;48.174;9.798;2022-12-18T09:08:21;-1.90;85.00
27314;DHT22;14800;48.174;9.798;2022-12-18T09:10:49;-1.90;85.10
27314;DHT22;14800;48.174;9.798;2022-12-18T09:13:15;-1.90;85.10
27314;DHT22;14800;48.174;9.798;2022-12-18T09:15:46;-1.90;85.20
27314;DHT22;14800;48.174;9.798;2022-12-18T09:18:14;-1.90;85.30
27314;DHT22;14800;48.174;9.798;2022-12-18T09:20:39;-1.90;85.40
27314;DHT22;14800;48.174;9.798;2022-12-18T09:23:06;-1.90;85.40
27314;DHT22;14800;48.174;9.798;2022-12-18T09:25:32;-1.90;85.50
27314;DHT22;14800;48.174;9.798;2022-12-18T09:28:03;-1.80;85.70
27314;DHT22;14800;48.174;9.798;2022-12-18T09:30:29;-1.80;85.70
27314;DHT22;14800;48.174;9.798;2022-12-18T09:32:55;-1.70;85.60
27314;DHT22;14800;48.174;9.798;2022-12-18T09:35:20;-1.70;86.10
27314;DHT22;14800;48.174;9.798;2022-12-18T09:37:46;-1.70;84.90
27314;DHT22;14800;48.174;9.798;2022-12-18T09:40:18;-1.70;84.70
27314;DHT22;14800;48.174;9.798;2022-12-18T09:42:55;-1.70;84.80
27314;DHT22;14800;48.174;9.798;2022-12-18T09:45:23;-1.70;84.80
27314;DHT22;14800;48.174;9.798;2022-12-18T09:47:50;-1.80;84.80
27314;DHT22;14800;48.174;9.798;2022-12-18T09:52:52;-1.80;84.60
27314;DHT22;14800;48.174;9.798;2022-12-18T09:55:25;-1.80;84.70
27314;DHT22;14800;48.174;9.798;2022-12-18T09:58:20;-1.80;84.70
27314;DHT22;14800;48.174;9.798;2022-12-18T10:00:52;-1.90;85.00
27314;DHT22;14800;48.174;9.798;2022-12-18T10:03:18;-1.90;84.90
27314;DHT22;14800;48.174;9.798;2022-12-18T10:08:49;-1.90;84.60
27314;DHT22;14800;48.174;9.798;2022-12-18T10:16:53;-1.90;84.80
27314;DHT22;14800;48.174;9.798;2022-12-18T10:22:36;-1.90;85.00
27314;DHT22;14800;48.174;9.798;2022-12-18T10:25:14;-1.90;84.90
27314;DHT22;14800;48.174;9.798;2022-12-18T10:27:40;-1.90;84.90
27314;DHT22;14800;48.174;9.798;2022-12-18T10:30:14;-1.90;85.00
27314;DHT22;14800;48.174;9.798;2022-12-18T10:32:40;-1.90;85.10
27314;DHT22;14800;48.174;9.798;2022-12-18T10:35:19;-1.90;85.00
27314;DHT22;14800;48.174;9.798;2022-12-18T10:38:07;-1.90;84.70
27314;DHT22;14800;48.174;9.798;2022-12-18T10:43:32;-1.90;84.80
27314;DHT22;14800;48.174;9.798;2022-12-18T10:51:26;-1.90;85.00
27314;DHT22;14800;48.174;9.798;2022-12-18T10:56:29;-1.80;85.10
27314;DHT22;14800;48.174;9.798;2022-12-18T10:59:16;-1.80;84.90
27314;DHT22;14800;48.174;9.798;2022-12-18T11:04:20;-1.70;84.90
27314;DHT22;14800;48.174;9.798;2022-12-18T11:07:02;-1.70;84.70
27314;DHT22;14800;48.174;9.798;2022-12-18T11:09:38;-1.70;84.70
27314;DHT22;14800;48.174;9.798;2022-12-18T11:14:46;-1.70;84.30
27314;DHT22;14800;48.174;9.798;2022-12-18T11:17:20;-1.70;84.20
27314;DHT22;14800;48.174;9.798;2022-12-18T11:19:53;-1.70;84.20
27314;DHT22;14800;48.174;9.798;2022-12-18T11:22:28;-1.70;84.20
27314;DHT22;14800;48.174;9.798;2022-12-18T11:25:04;-1.70;84.00
27314;DHT22;14800;48.174;9.798;2022-12-18T11:27:31;-1.80;84.00
27314;DHT22;14800;48.174;9.798;2022-12-18T11:30:21;-1.80;84.00
27314;DHT22;14800;48.174;9.798;2022-12-18T11:35:22;-1.80;85.00
27314;DHT22;14800;48.174;9.798;2022-12-18T11:37:54;-1.80;84.10
27314;DHT22;14800;48.174;9.798;2022-12-18T11:40:33;-1.80;84.20
27314;DHT22;14800;48.174;9.798;2022-12-18T11:43:08;-1.90;84.20
27314;DHT22;14800;48.174;9.798;2022-12-18T11:45:40;-1.80;84.40
27314;DHT22;14800;48.174;9.798;2022-12-18T11:48:18;-1.80;84.40
27314;DHT22;14800;48.174;9.798;2022-12-18T11:50:52;-1.80;85.20
27314;DHT22;14800;48.174;9.798;2022-12-18T11:53:19;-1.80;84.30
27314;DHT22;14800;48.174;9.798;2022-12-18T12:09:18;-1.80;84.00
27314;DHT22;14800;48.174;9.798;2022-12-18T12:14:47;-1.90;83.80
27314;DHT22;14800;48.174;9.798;2022-12-18T12:17:45;-1.80;83.80
27314;DHT22;14800;48.174;9.798;2022-12-18T12:20:21;-1.90;83.80
27314;DHT22;14800;48.174;9.798;2022-12-18T12:25:52;-1.90;83.90
27314;DHT22;14800;48.174;9.798;2022-12-18T12:36:40;-2.00;83.70
27314;DHT22;14800;48.174;9.798;2022-12-18T12:39:13;-2.00;83.90
27314;DHT22;14800;48.174;9.798;2022-12-18T12:41:40;-2.00;83.90
27314;DHT22;14800;48.174;9.798;2022-12-18T12:44:30;-2.00;84.00
27314;DHT22;14800;48.174;9.798;2022-12-18T12:47:02;-2.00;84.70
27314;DHT22;14800;48.174;9.798;2022-12-18T12:49:33;-2.00;83.80
27314;DHT22;14800;48.174;9.798;2022-12-18T12:52:10;-2.00;83.90
27314;DHT22;14800;48.174;9.798;2022-12-18T12:54:38;-2.00;83.70
27314;DHT22;14800;48.174;9.798;2022-12-18T12:57:24;-2.00;83.70
27314;DHT22;14800;48.174;9.798;2022-12-18T13:00:14;-1.90;84.00
27314;DHT22;14800;48.174;9.798;2022-12-18T13:03:12;-1.90;84.00
27314;DHT22;14800;48.174;9.798;2022-12-18T13:05:56;-1.90;84.00
27314;DHT22;14800;48.174;9.798;2022-12-18T13:08:31;-1.80;84.00
27314;DHT22;14800;48.174;9.798;2022-12-18T13:10:59;-1.80;83.90
27314;DHT22;14800;48.174;9.798;2022-12-18T13:13:54;-1.80;83.80
27314;DHT22;14800;48.174;9.798;2022-12-18T13:16:25;-1.80;83.80
27314;DHT22;14800;48.174;9.798;2022-12-18T13:18:54;-1.80;83.80
27314;DHT22;14800;48.174;9.798;2022-12-18T13:21:32;-1.80;83.70
27314;DHT22;14800;48.174;9.798;2022-12-18T13:24:22;-1.80;83.60
27314;DHT22;14800;48.174;9.798;2022-12-18T13:26:48;-1.80;83.60
27314;DHT22;14800;48.174;9.798;2022-12-18T13:29:41;-1.80;83.60
27314;DHT22;14800;48.174;9.798;2022-12-18T13:32:21;-1.80;83.50
27314;DHT22;14800;48.174;9.798;2022-12-18T13:34:47;-1.80;83.50
27314;DHT22;14800;48.174;9.798;2022-12-18T13:39:57;-1.80;83.70
27314;DHT22;14800;48.174;9.798;2022-12-18T13:45:42;-1.80;83.80
27314;DHT22;14800;48.174;9.798;2022-12-18T13:48:16;-1.70;83.60
27314;DHT22;14800;48.174;9.798;2022-12-18T13:50:42;-1.70;83.50
27314;DHT22;14800;48.174;9.798;2022-12-18T13:53:20;-1.70;83.50
27314;DHT22;14800;48.174;9.798;2022-12-18T13:55:46;-1.70;83.60
27314;DHT22;14800;48.174;9.798;2022-12-18T13:58:12;-1.70;83.70
27314;DHT22;14800;48.174;9.798;2022-12-18T14:00:42;-1.70;83.70
27314;DHT22;14800;48.174;9.798;2022-12-18T14:03:26;-1.70;83.50
27314;DHT22;14800;48.174;9.798;2022-12-18T14:06:05;-1.70;83.70
27314;DHT22;14800;48.174;9.798;2022-12-18T14:08:40;-1.70;83.70
27314;DHT22;14800;48.174;9.798;2022-12-18T14:11:07;-1.70;83.60
27314;DHT22;14800;48.174;9.798;2022-12-18T14:13:43;-1.70;84.40
27314;DHT22;14800;48.174;9.798;2022-12-18T14:16:14;-1.60;83.60
27314;DHT22;14800;48.174;9.798;2022-12-18T14:18:55;-1.70;83.50
27314;DHT22;14800;48.174;9.798;2022-12-18T14:21:28;-1.60;83.50
27314;DHT22;14800;48.174;9.798;2022-12-18T14:24:16;-1.60;83.50
27314;DHT22;14800;48.174;9.798;2022-12-18T14:26:42;-1.60;83.50
27314;DHT22;14800;48.174;9.798;2022-12-18T14:31:44;-1.60;83.70
27314;DHT22;14800;48.174;9.798;2022-12-18T14:34:18;-1.60;83.80
27314;DHT22;14800;48.174;9.798;2022-12-18T14:36:53;-1.50;83.80
27314;DHT22;14800;48.174;9.798;2022-12-18T14:39:21;-1.50;83.70
27314;DHT22;14800;48.174;9.798;2022-12-18T14:41:49;-1.50;83.60
27314;DHT22;14800;48.174;9.798;2022-12-18T14:44:15;-1.50;83.30
27314;DHT22;14800;48.174;9.798;2022-12-18T14:46:43;-1.40;83.20
27314;DHT22;14800;48.174;9.798;2022-12-18T14:51:58;-1.50;82.70
27314;DHT22;14800;48.174;9.798;2022-12-18T14:54:26;-1.50;82.70
27314;DHT22;14800;48.174;9.798;2022-12-18T14:59:39;-1.60;82.70
27314;DHT22;14800;48.174;9.798;2022-12-18T15:02:22;-1.60;82.90
27314;DHT22;14800;48.174;9.798;2022-12-18T15:05:00;-1.60;83.00
27314;DHT22;14800;48.174;9.798;2022-12-18T15:07:26;-1.70;83.00
27314;DHT22;14800;48.174;9.798;2022-12-18T15:10:28;-1.70;83.10
27314;DHT22;14800;48.174;9.798;2022-12-18T15:20:48;-1.70;83.50
27314;DHT22;14800;48.174;9.798;2022-12-18T15:25:42;-1.70;83.50
27314;DHT22;14800;48.174;9.798;2022-12-18T15:28:32;-1.70;83.50
27314;DHT22;14800;48.174;9.798;2022-12-18T15:31:19;-1.70;83.60
27314;DHT22;14800;48.174;9.798;2022-12-18T15:36:20;-1.80;83.30
27314;DHT22;14800;48.174;9.798;2022-12-18T15:38:49;-1.70;83.40
27314;DHT22;14800;48.174;9.798;2022-12-18T15:41:20;-1.70;83.50
27314;DHT22;14800;48.174;9.798;2022-12-18T15:43:48;-1.80;83.40
27314;DHT22;14800;48.174;9.798;2022-12-18T15:48:49;-1.80;83.20
27314;DHT22;14800;48.174;9.798;2022-12-18T15:51:35;-1.80;83.30
27314;DHT22;14800;48.174;9.798;2022-12-18T15:54:03;-1.80;83.30
27314;DHT22;14800;48.174;9.798;2022-12-18T15:56:30;-1.80;83.30
27314;DHT22;14800;48.174;9.798;2022-12-18T15:59:15;-1.80;83.40
27314;DHT22;14800;48.174;9.798;2022-12-18T16:01:44;-1.80;83.50
27314;DHT22;14800;48.174;9.798;2022-12-18T16:04:14;-1.90;83.40
27314;DHT22;14800;48.174;9.798;2022-12-18T16:06:40;-1.90;83.40
27314;DHT22;14800;48.174;9.798;2022-12-18T16:09:06;-1.90;83.50
27314;DHT22;14800;48.174;9.798;2022-12-18T16:11:34;-1.90;84.30
27314;DHT22;14800;48.174;9.798;2022-12-18T16:14:33;-1.90;83.50
27314;DHT22;14800;48.174;9.798;2022-12-18T16:17:01;-1.90;83.50
27314;DHT22;14800;48.174;9.798;2022-12-18T16:19:28;-1.90;83.50
27314;DHT22;14800;48.174;9.798;2022-12-18T16:21:55;-1.90;83.60
27314;DHT22;14800;48.174;9.798;2022-12-18T16:24:26;-1.90;83.70
27314;DHT22;14800;48.174;9.798;2022-12-18T16:26:53;-1.90;83.70
27314;DHT22;14800;48.174;9.798;2022-12-18T16:29:20;-1.90;83.80
27314;DHT22;14800;48.174;9.798;2022-12-18T16:31:52;-1.90;83.90
27314;DHT22;14800;48.174;9.798;2022-12-18T16:34:29;-1.90;84.00
27314;DHT22;14800;48.174;9.798;2022-12-18T16:36:59;-1.90;84.20
27314;DHT22;14800;48.174;9.798;2022-12-18T16:39:26;-1.90;84.20
27314;DHT22;14800;48.174;9.798;2022-12-18T16:41:52;-1.90;84.30
27314;DHT22;14800;48.174;9.798;2022-12-18T16:44:18;-1.90;84.20
27314;DHT22;14800;48.174;9.798;2022-12-18T16:46:44;-1.90;84.00
27314;DHT22;14800;48.174;9.798;2022-12-18T16:49:15;-1.90;83.90
27314;DHT22;14800;48.174;9.798;2022-12-18T16:51:41;-1.80;84.00
27314;DHT22;14800;48.174;9.798;2022-12-18T16:54:07;-1.90;83.90
27314;DHT22;14800;48.174;9.798;2022-12-18T16:56:32;-1.90;84.10
27314;DHT22;14800;48.174;9.798;2022-12-18T16:58:59;-1.80;84.20
27314;DHT22;14800;48.174;9.798;2022-12-18T17:01:27;-1.80;84.20
27314;DHT22;14800;48.174;9.798;2022-12-18T17:03:59;-1.80;84.20
27314;DHT22;14800;48.174;9.798;2022-12-18T17:06:26;-1.80;84.20
27314;DHT22;14800;48.174;9.798;2022-12-18T17:09:00;-1.80;84.20
27314;DHT22;14800;48.174;9.798;2022-12-18T17:11:28;-1.80;84.10
27314;DHT22;14800;48.174;9.798;2022-12-18T17:13:55;-1.80;84.10
27314;DHT22;14800;48.174;9.798;2022-12-18T17:16:21;-1.80;83.90
27314;DHT22;14800;48.174;9.798;2022-12-18T17:18:47;-1.80;83.90
27314;DHT22;14800;48.174;9.798;2022-12-18T17:21:13;-1.80;83.80
27314;DHT22;14800;48.174;9.798;2022-12-18T17:23:40;-1.70;84.00
27314;DHT22;14800;48.174;9.798;2022-12-18T17:26:07;-1.70;84.00
27314;DHT22;14800;48.174;9.798;2022-12-18T17:28:34;-1.70;84.00
27314;DHT22;14800;48.174;9.798;2022-12-18T17:31:00;-1.70;84.00
27314;DHT22;14800;48.174;9.798;2022-12-18T17:33:26;-1.70;84.10
27314;DHT22;14800;48.174;9.798;2022-12-18T17:35:52;-1.70;84.00
27314;DHT22;14800;48.174;9.798;2022-12-18T17:38:18;-1.70;84.20
27314;DHT22;14800;48.174;9.798;2022-12-18T17:40:43;-1.60;84.20
27314;DHT22;14800;48.174;9.798;2022-12-18T17:43:10;-1.60;84.20
27314;DHT22;14800;48.174;9.798;2022-12-18T17:45:39;-1.60;84.10
27314;DHT22;14800;48.174;9.798;2022-12-18T17:48:06;-1.50;84.00